sensor_id;sensor_type;location;lat;lon;timestamp;pressure;altitude;pressure_sealevel;temperature;humidity
37291;BME280;23175;-33.706;151.094;2023-04-28T00:00:40;100016.71;;;16.03;48.33
37291;BME280;23175;-33.706;151.094;2023-04-28T00:03:10;100017.33;;;17.38;47.37
37291;BME280;23175;-33.706;151.094;2023-04-28T00:05:41;100016.55;;;16.01;48.63
37291;BME280;23175;-33.706;151.094;2023-04-28T00:08:11;100011.96;;;17.28;47.55
37291;BME280;23175;-33.706;151.094;2023-04-28T00:10:41;100011.55;;;18.90;44.07
37291;BME280;23175;-33.706;151.094;2023-04-28T00:13:12;100008.96;;;18.52;43.89
37291;BME280;23175;-33.706;151.094;2023-04-28T00:15:42;100008.85;;;19.42;44.00
37291;BME280;23175;-33.706;151.094;2023-04-28T00:18:12;100000.72;;;19.56;42.78
37291;BME280;23175;-33.706;151.094;2023-04-28T00:20:42;99998.09;;;16.61;47.10
37291;BME280;23175;-33.706;151.094;2023-04-28T00:23:11;99999.29;;;17.61;45.33
37291;BME280;23175;-33.706;151.094;2023-04-28T00:25:42;99993.87;;;15.42;48.84
37291;BME280;23175;-33.706;151.094;2023-04-28T00:28:12;99992.89;;;14.93;50.96
37291;BME280;23175;-33.706;151.094;2023-04-28T00:30:42;99988.74;;;16.62;48.40
37291;BME280;23175;-33.706;151.094;2023-04-28T00:33:13;99978.94;;;16.07;47.02
37291;BME280;23175;-33.706;151.094;2023-04-28T00:35:43;99978.76;;;15.31;50.00
37291;BME280;23175;-33.706;151.094;2023-04-28T00:38:13;99972.11;;;17.30;47.39
37291;BME280;23175;-33.706;151.094;2023-04-28T00:40:43;99967.12;;;18.32;45.11
37291;BME280;23175;-33.706;151.094;2023-04-28T00:43:14;99958.93;;;15.85;47.59
37291;BME280;23175;-33.706;151.094;2023-04-28T00:45:44;99953.73;;;17.31;45.80
37291;BME280;23175;-33.706;151.094;2023-04-28T00:48:15;99949.19;;;15.75;48.48
37291;BME280;23175;-33.706;151.094;2023-04-28T00:50:45;99941.65;;;19.74;41.31
37291;BME280;23175;-33.706;151.094;2023-04-28T00:53:16;99939.92;;;19.48;42.25
37291;BME280;23175;-33.706;151.094;2023-04-28T00:55:47;99933.81;;;16.69;46.38
37291;BME280;23175;-33.706;151.094;2023-04-28T00:58:17;99929.55;;;20.25;41.55
37291;BME280;23175;-33.706;151.094;2023-04-28T01:00:47;99924.71;;;17.09;46.21
37291;BME280;23175;-33.706;151.094;2023-04-28T01:03:18;99919.64;;;18.22;43.81
37291;BME280;23175;-33.706;151.094;2023-04-28T01:05:49;99910.33;;;21.31;40.77
37291;BME280;23175;-33.706;151.094;2023-04-28T01:08:23;99906.88;;;19.19;42.39
37291;BME280;23175;-33.706;151.094;2023-04-28T01:10:57;99905.58;;;19.31;41.99
37291;BME280;23175;-33.706;151.094;2023-04-28T01:13:27;99900.43;;;21.66;39.52
37291;BME280;23175;-33.706;151.094;2023-04-28T01:15:57;99893.09;;;19.83;39.61
37291;BME280;23175;-33.706;151.094;2023-04-28T01:18:27;99892.53;;;17.50;42.97
37291;BME280;23175;-33.706;151.094;2023-04-28T01:20:58;99882.46;;;21.42;39.66
37291;BME280;23175;-33.706;151.094;2023-04-28T01:23:28;99879.93;;;18.85;40.89
37291;BME280;23175;-33.706;151.094;2023-04-28T01:25:58;99871.25;;;18.74;41.24
37291;BME280;23175;-33.706;151.094;2023-04-28T01:28:28;99870.63;;;19.69;39.58
37291;BME280;23175;-33.706;151.094;2023-04-28T01:30:59;99863.18;;;18.69;42.27
37291;BME280;23175;-33.706;151.094;2023-04-28T01:33:29;99857.24;;;18.62;39.50
37291;BME280;23175;-33.706;151.094;2023-04-28T01:35:59;99857.94;;;20.08;39.58
37291;BME280;23175;-33.706;151.094;2023-04-28T01:38:29;99853.19;;;19.26;40.17
37291;BME280;23175;-33.706;151.094;2023-04-28T01:41:00;99850.94;;;16.86;41.61
37291;BME280;23175;-33.706;151.094;2023-04-28T01:43:31;99846.68;;;17.88;43.12
37291;BME280;23175;-33.706;151.094;2023-04-28T01:46:01;99837.43;;;19.40;39.62
37291;BME280;23175;-33.706;151.094;2023-04-28T01:48:30;99833.02;;;19.44;40.79
37291;BME280;23175;-33.706;151.094;2023-04-28T01:51:01;99837.58;;;18.07;39.81
37291;BME280;23175;-33.706;151.094;2023-04-28T01:53:31;99828.88;;;17.43;41.83
37291;BME280;23175;-33.706;151.094;2023-04-28T01:56:01;99825.45;;;18.95;41.06
37291;BME280;23175;-33.706;151.094;2023-04-28T01:58:32;99814.44;;;18.99;39.74
37291;BME280;23175;-33.706;151.094;2023-04-28T02:01:02;99806.12;;;21.08;37.76
37291;BME280;23175;-33.706;151.094;2023-04-28T02:03:32;99802.55;;;20.82;38.00
37291;BME280;23175;-33.706;151.094;2023-04-28T02:06:03;99799.51;;;18.08;40.98
37291;BME280;23175;-33.706;151.094;2023-04-28T02:08:33;99795.53;;;20.14;39.47
37291;BME280;23175;-33.706;151.094;2023-04-28T02:11:03;99793.05;;;18.50;40.46
37291;BME280;23175;-33.706;151.094;2023-04-28T02:13:33;99793.62;;;17.68;39.94
37291;BME280;23175;-33.706;151.094;2023-04-28T02:16:04;99783.24;;;17.47;40.58
37291;BME280;23175;-33.706;151.094;2023-04-28T02:18:34;99778.05;;;19.08;39.35
37291;BME280;23175;-33.706;151.094;2023-04-28T02:21:09;99779.20;;;17.08;40.88
37291;BME280;23175;-33.706;151.094;2023-04-28T02:23:39;99766.09;;;19.28;39.23
37291;BME280;23175;-33.706;151.094;2023-04-28T02:26:10;99765.17;;;18.45;41.97
37291;BME280;23175;-33.706;151.094;2023-04-28T02:28:40;99756.34;;;18.50;39.63
37291;BME280;23175;-33.706;151.094;2023-04-28T02:31:11;99758.85;;;19.56;39.34
37291;BME280;23175;-33.706;151.094;2023-04-28T02:33:46;99746.22;;;18.54;41.10
37291;BME280;23175;-33.706;151.094;2023-04-28T02:36:15;99740.67;;;17.88;40.39
37291;BME280;23175;-33.706;151.094;2023-04-28T02:38:45;99734.51;;;17.96;40.48
37291;BME280;23175;-33.706;151.094;2023-04-28T02:41:16;99734.44;;;18.39;41.52
37291;BME280;23175;-33.706;151.094;2023-04-28T02:43:46;99729.16;;;17.21;43.18
37291;BME280;23175;-33.706;151.094;2023-04-28T02:46:16;99726.66;;;17.37;42.94
37291;BME280;23175;-33.706;151.094;2023-04-28T02:48:47;99719.13;;;18.87;41.74
37291;BME280;23175;-33.706;151.094;2023-04-28T02:51:17;99716.17;;;17.83;42.99
37291;BME280;23175;-33.706;151.094;2023-04-28T02:53:47;99708.72;;;19.51;41.61
37291;BME280;23175;-33.706;151.094;2023-04-28T02:56:17;99705.05;;;17.92;42.35
37291;BME280;23175;-33.706;151.094;2023-04-28T02:58:48;99698.81;;;18.12;41.57
37291;BME280;23175;-33.706;151.094;2023-04-28T03:01:18;99695.40;;;18.06;42.57
37291;BME280;23175;-33.706;151.094;2023-04-28T03:03:48;99689.02;;;20.46;39.49
37291;BME280;23175;-33.706;151.094;2023-04-28T03:06:19;99681.22;;;19.12;40.74
37291;BME280;23175;-33.706;151.094;2023-04-28T03:08:49;99675.72;;;18.00;42.19
37291;BME280;23175;-33.706;151.094;2023-04-28T03:11:20;99675.29;;;17.71;43.57
37291;BME280;23175;-33.706;151.094;2023-04-28T03:13:50;99669.92;;;18.07;42.47
37291;BME280;23175;-33.706;151.094;2023-04-28T03:16:20;99670.14;;;18.99;42.17
37291;BME280;23175;-33.706;151.094;2023-04-28T03:18:51;99664.42;;;19.64;41.43
37291;BME280;23175;-33.706;151.094;2023-04-28T03:21:21;99663.91;;;18.69;40.78
37291;BME280;23175;-33.706;151.094;2023-04-28T03:23:51;99661.90;;;18.95;42.32
37291;BME280;23175;-33.706;151.094;2023-04-28T03:26:26;99657.62;;;19.33;42.62
37291;BME280;23175;-33.706;151.094;2023-04-28T03:28:57;99655.68;;;19.29;40.56
37291;BME280;23175;-33.706;151.094;2023-04-28T03:31:27;99655.29;;;20.34;39.82
37291;BME280;23175;-33.706;151.094;2023-04-28T03:33:58;99647.10;;;17.78;41.81
37291;BME280;23175;-33.706;151.094;2023-04-28T03:36:28;99645.27;;;18.37;42.66
37291;BME280;23175;-33.706;151.094;2023-04-28T03:38:59;99642.23;;;18.93;42.32
37291;BME280;23175;-33.706;151.094;2023-04-28T03:41:28;99641.84;;;18.81;42.13
37291;BME280;23175;-33.706;151.094;2023-04-28T03:43:59;99642.45;;;18.35;42.69
37291;BME280;23175;-33.706;151.094;2023-04-28T03:46:29;99644.17;;;18.48;42.25
37291;BME280;23175;-33.706;151.094;2023-04-28T03:48:59;99636.11;;;18.74;42.12
37291;BME280;23175;-33.706;151.094;2023-04-28T03:51:30;99632.04;;;17.53;43.61
37291;BME280;23175;-33.706;151.094;2023-04-28T03:54:00;99623.86;;;20.10;40.56
37291;BME280;23175;-33.706;151.094;2023-04-28T03:56:30;99618.91;;;19.92;40.72
37291;BME280;23175;-33.706;151.094;2023-04-28T03:59:00;99621.21;;;20.29;39.62
37291;BME280;23175;-33.706;151.094;2023-04-28T04:01:31;99610.59;;;19.66;40.11
37291;BME280;23175;-33.706;151.094;2023-04-28T04:04:01;99604.52;;;18.18;40.87
37291;BME280;23175;-33.706;151.094;2023-04-28T04:06:31;99610.08;;;19.94;40.12
37291;BME280;23175;-33.706;151.094;2023-04-28T04:09:03;99604.84;;;19.54;39.73
37291;BME280;23175;-33.706;151.094;2023-04-28T04:11:34;99601.08;;;18.53;40.25
37291;BME280;23175;-33.706;151.094;2023-04-28T04:14:03;99597.38;;;18.09;40.57
37291;BME280;23175;-33.706;151.094;2023-04-28T04:16:36;99597.21;;;18.85;40.48
37291;BME280;23175;-33.706;151.094;2023-04-28T04:19:06;99592.30;;;18.78;39.98
37291;BME280;23175;-33.706;151.094;2023-04-28T04:21:36;99595.07;;;20.21;38.44
37291;BME280;23175;-33.706;151.094;2023-04-28T04:24:07;99591.10;;;21.80;37.01
37291;BME280;23175;-33.706;151.094;2023-04-28T04:26:37;99586.02;;;18.64;39.62
37291;BME280;23175;-33.706;151.094;2023-04-28T04:29:07;99582.30;;;18.98;39.78
37291;BME280;23175;-33.706;151.094;2023-04-28T04:31:37;99577.43;;;18.61;39.81
37291;BME280;23175;-33.706;151.094;2023-04-28T04:34:08;99578.18;;;20.75;38.08
37291;BME280;23175;-33.706;151.094;2023-04-28T04:36:43;99578.45;;;18.90;38.35
37291;BME280;23175;-33.706;151.094;2023-04-28T04:39:13;99571.20;;;19.33;38.30
37291;BME280;23175;-33.706;151.094;2023-04-28T04:41:45;99570.80;;;19.02;37.98
37291;BME280;23175;-33.706;151.094;2023-04-28T04:44:15;99572.91;;;19.27;38.18
37291;BME280;23175;-33.706;151.094;2023-04-28T04:46:46;99576.39;;;17.57;40.23
37291;BME280;23175;-33.706;151.094;2023-04-28T04:49:16;99574.48;;;20.16;37.54
37291;BME280;23175;-33.706;151.094;2023-04-28T04:51:47;99570.55;;;18.75;39.82
37291;BME280;23175;-33.706;151.094;2023-04-28T04:54:17;99566.96;;;20.60;37.99
37291;BME280;23175;-33.706;151.094;2023-04-28T04:56:47;99563.07;;;18.14;38.52
37291;BME280;23175;-33.706;151.094;2023-04-28T04:59:17;99562.41;;;19.48;37.69
37291;BME280;23175;-33.706;151.094;2023-04-28T05:01:48;99560.48;;;19.88;37.15
37291;BME280;23175;-33.706;151.094;2023-04-28T05:04:18;99558.79;;;19.29;37.85
37291;BME280;23175;-33.706;151.094;2023-04-28T05:06:49;99552.90;;;19.81;36.87
37291;BME280;23175;-33.706;151.094;2023-04-28T05:09:19;99551.13;;;18.95;38.67
37291;BME280;23175;-33.706;151.094;2023-04-28T05:11:50;99549.89;;;19.98;37.41
37291;BME280;23175;-33.706;151.094;2023-04-28T05:14:20;99551.47;;;19.43;38.07
37291;BME280;23175;-33.706;151.094;2023-04-28T05:16:50;99552.79;;;19.16;39.12
37291;BME280;23175;-33.706;151.094;2023-04-28T05:19:26;99551.15;;;18.63;39.97
37291;BME280;23175;-33.706;151.094;2023-04-28T05:21:55;99554.73;;;19.94;39.02
37291;BME280;23175;-33.706;151.094;2023-04-28T05:24:26;99553.26;;;19.88;39.70
37291;BME280;23175;-33.706;151.094;2023-04-28T05:26:58;99548.57;;;21.46;37.33
37291;BME280;23175;-33.706;151.094;2023-04-28T05:29:29;99546.64;;;20.70;37.49
37291;BME280;23175;-33.706;151.094;2023-04-28T05:31:59;99546.67;;;19.43;40.46
37291;BME280;23175;-33.706;151.094;2023-04-28T05:34:29;99543.03;;;20.56;37.67
37291;BME280;23175;-33.706;151.094;2023-04-28T05:37:00;99547.40;;;21.25;37.19
37291;BME280;23175;-33.706;151.094;2023-04-28T05:39:30;99539.85;;;20.60;37.74
37291;BME280;23175;-33.706;151.094;2023-04-28T05:42:00;99540.90;;;21.24;37.58
37291;BME280;23175;-33.706;151.094;2023-04-28T05:44:30;99537.14;;;20.96;36.94
37291;BME280;23175;-33.706;151.094;2023-04-28T05:47:01;99536.78;;;21.96;35.64
37291;BME280;23175;-33.706;151.094;2023-04-28T05:49:31;99535.42;;;19.99;36.54
37291;BME280;23175;-33.706;151.094;2023-04-28T05:52:01;99534.00;;;18.10;39.67
37291;BME280;23175;-33.706;151.094;2023-04-28T05:54:31;99529.39;;;20.45;36.28
37291;BME280;23175;-33.706;151.094;2023-04-28T05:57:02;99532.34;;;19.14;38.59
37291;BME280;23175;-33.706;151.094;2023-04-28T05:59:32;99531.70;;;20.78;36.64
37291;BME280;23175;-33.706;151.094;2023-04-28T06:02:02;99530.45;;;20.21;36.68
37291;BME280;23175;-33.706;151.094;2023-04-28T06:04:33;99528.64;;;20.40;36.16
37291;BME280;23175;-33.706;151.094;2023-04-28T06:07:04;99526.45;;;19.27;37.49
37291;BME280;23175;-33.706;151.094;2023-04-28T06:09:34;99525.04;;;21.03;35.76
37291;BME280;23175;-33.706;151.094;2023-04-28T06:12:05;99522.64;;;19.76;37.59
37291;BME280;23175;-33.706;151.094;2023-04-28T06:14:35;99517.32;;;20.36;37.19
37291;BME280;23175;-33.706;151.094;2023-04-28T06:17:05;99516.27;;;20.71;35.91
37291;BME280;23175;-33.706;151.094;2023-04-28T06:19:35;99509.56;;;22.03;34.25
37291;BME280;23175;-33.706;151.094;2023-04-28T06:22:06;99509.88;;;18.72;38.27
37291;BME280;23175;-33.706;151.094;2023-04-28T06:24:36;99507.44;;;21.22;35.29
37291;BME280;23175;-33.706;151.094;2023-04-28T06:27:07;99508.24;;;22.23;34.26
37291;BME280;23175;-33.706;151.094;2023-04-28T06:29:37;99505.34;;;21.48;35.02
37291;BME280;23175;-33.706;151.094;2023-04-28T06:32:07;99504.51;;;23.44;32.99
37291;BME280;23175;-33.706;151.094;2023-04-28T06:34:37;99503.91;;;23.56;33.18
37291;BME280;23175;-33.706;151.094;2023-04-28T06:37:07;99501.09;;;23.31;33.80
37291;BME280;23175;-33.706;151.094;2023-04-28T06:39:43;99500.06;;;20.70;37.34
37291;BME280;23175;-33.706;151.094;2023-04-28T06:42:13;99496.16;;;22.41;34.64
37291;BME280;23175;-33.706;151.094;2023-04-28T06:44:44;99496.98;;;21.69;35.34
37291;BME280;23175;-33.706;151.094;2023-04-28T06:47:14;99497.91;;;23.25;34.30
37291;BME280;23175;-33.706;151.094;2023-04-28T06:49:44;99499.25;;;22.26;36.06
37291;BME280;23175;-33.706;151.094;2023-04-28T06:52:14;99497.08;;;23.40;34.72
37291;BME280;23175;-33.706;151.094;2023-04-28T06:54:45;99502.14;;;20.29;39.06
37291;BME280;23175;-33.706;151.094;2023-04-28T06:57:15;99500.13;;;22.55;36.16
37291;BME280;23175;-33.706;151.094;2023-04-28T06:59:45;99499.70;;;23.25;35.79
37291;BME280;23175;-33.706;151.094;2023-04-28T07:02:16;99497.51;;;21.93;37.06
37291;BME280;23175;-33.706;151.094;2023-04-28T07:04:46;99494.93;;;21.93;36.85
37291;BME280;23175;-33.706;151.094;2023-04-28T07:07:17;99494.81;;;20.41;39.30
37291;BME280;23175;-33.706;151.094;2023-04-28T07:09:47;99493.44;;;20.58;39.39
37291;BME280;23175;-33.706;151.094;2023-04-28T07:12:17;99489.35;;;22.36;37.48
37291;BME280;23175;-33.706;151.094;2023-04-28T07:14:47;99487.81;;;21.69;38.37
37291;BME280;23175;-33.706;151.094;2023-04-28T07:17:18;99492.77;;;19.77;40.47
37291;BME280;23175;-33.706;151.094;2023-04-28T07:19:48;99490.65;;;22.89;37.83
37291;BME280;23175;-33.706;151.094;2023-04-28T07:22:18;99489.78;;;21.53;39.04
37291;BME280;23175;-33.706;151.094;2023-04-28T07:24:49;99492.94;;;19.32;42.12
37291;BME280;23175;-33.706;151.094;2023-04-28T07:27:19;99489.35;;;20.62;40.90
37291;BME280;23175;-33.706;151.094;2023-04-28T07:29:49;99486.80;;;21.67;39.65
37291;BME280;23175;-33.706;151.094;2023-04-28T07:32:20;99486.50;;;17.91;44.35
37291;BME280;23175;-33.706;151.094;2023-04-28T07:34:50;99489.60;;;20.06;41.54
37291;BME280;23175;-33.706;151.094;2023-04-28T07:37:20;99487.78;;;21.73;39.41
37291;BME280;23175;-33.706;151.094;2023-04-28T07:39:50;99491.46;;;20.07;41.94
37291;BME280;23175;-33.706;151.094;2023-04-28T07:42:20;99491.00;;;20.93;40.37
37291;BME280;23175;-33.706;151.094;2023-04-28T07:44:51;99491.56;;;20.15;41.60
37291;BME280;23175;-33.706;151.094;2023-04-28T07:47:21;99492.62;;;19.94;42.02
37291;BME280;23175;-33.706;151.094;2023-04-28T07:49:52;99492.14;;;19.76;41.92
37291;BME280;23175;-33.706;151.094;2023-04-28T07:52:22;99493.83;;;17.68;44.62
37291;BME280;23175;-33.706;151.094;2023-04-28T07:54:52;99495.99;;;19.49;43.49
37291;BME280;23175;-33.706;151.094;2023-04-28T07:57:23;99499.69;;;21.76;40.29
37291;BME280;23175;-33.706;151.094;2023-04-28T07:59:53;99498.84;;;20.61;41.05
37291;BME280;23175;-33.706;151.094;2023-04-28T08:02:23;99499.35;;;18.71;44.23
37291;BME280;23175;-33.706;151.094;2023-04-28T08:04:53;99503.50;;;18.68;45.03
37291;BME280;23175;-33.706;151.094;2023-04-28T08:07:24;99502.42;;;19.41;43.41
37291;BME280;23175;-33.706;151.094;2023-04-28T08:09:54;99502.41;;;17.72;46.66
37291;BME280;23175;-33.706;151.094;2023-04-28T08:12:24;99505.30;;;19.30;45.40
37291;BME280;23175;-33.706;151.094;2023-04-28T08:14:55;99505.89;;;18.35;46.56
37291;BME280;23175;-33.706;151.094;2023-04-28T08:17:25;99506.49;;;18.69;48.07
37291;BME280;23175;-33.706;151.094;2023-04-28T08:19:55;99508.73;;;20.28;46.19
37291;BME280;23175;-33.706;151.094;2023-04-28T08:22:25;99508.63;;;19.30;47.60
37291;BME280;23175;-33.706;151.094;2023-04-28T08:24:55;99509.12;;;17.88;50.20
37291;BME280;23175;-33.706;151.094;2023-04-28T08:27:26;99512.01;;;19.99;46.94
37291;BME280;23175;-33.706;151.094;2023-04-28T08:29:56;99512.58;;;20.34;45.21
37291;BME280;23175;-33.706;151.094;2023-04-28T08:32:26;99509.98;;;19.02;48.03
37291;BME280;23175;-33.706;151.094;2023-04-28T08:34:57;99510.63;;;19.10;48.29
37291;BME280;23175;-33.706;151.094;2023-04-28T08:37:28;99515.13;;;20.71;46.08
37291;BME280;23175;-33.706;151.094;2023-04-28T08:39:59;99509.86;;;21.27;45.37
37291;BME280;23175;-33.706;151.094;2023-04-28T08:42:30;99505.92;;;20.61;46.40
37291;BME280;23175;-33.706;151.094;2023-04-28T08:45:00;99501.29;;;19.31;48.94
37291;BME280;23175;-33.706;151.094;2023-04-28T08:47:35;99500.59;;;20.65;45.93
37291;BME280;23175;-33.706;151.094;2023-04-28T08:50:07;99500.71;;;21.49;44.86
37291;BME280;23175;-33.706;151.094;2023-04-28T08:52:42;99495.98;;;18.00;49.94
37291;BME280;23175;-33.706;151.094;2023-04-28T08:55:14;99499.51;;;19.32;48.48
37291;BME280;23175;-33.706;151.094;2023-04-28T08:57:48;99499.60;;;19.49;48.50
37291;BME280;23175;-33.706;151.094;2023-04-28T09:00:18;99499.23;;;18.26;50.29
37291;BME280;23175;-33.706;151.094;2023-04-28T09:02:48;99503.71;;;17.75;52.08
37291;BME280;23175;-33.706;151.094;2023-04-28T09:05:19;99505.64;;;21.31;46.29
37291;BME280;23175;-33.706;151.094;2023-04-28T09:07:49;99506.03;;;20.40;47.40
37291;BME280;23175;-33.706;151.094;2023-04-28T09:10:21;99504.02;;;18.06;50.67
37291;BME280;23175;-33.706;151.094;2023-04-28T09:12:53;99505.21;;;20.48;47.14
37291;BME280;23175;-33.706;151.094;2023-04-28T09:15:38;99508.00;;;17.79;51.56
37291;BME280;23175;-33.706;151.094;2023-04-28T09:18:15;99510.16;;;17.41;52.37
